sensor_id;sensor_type;location;lat;lon;timestamp;P1;durP1;ratioP1;P2;durP2;ratioP2
64832;SDS011;51290;45.060;38.948;2023-01-28T05:46:40;17.70;;;7.50;;
64832;SDS011;51290;45.060;38.948;2023-01-28T05:51:06;19.48;;;7.03;;
64832;SDS011;51290;45.060;38.948;2023-01-28T05:53:35;15.40;;;7.30;;
64832;SDS011;51290;45.060;38.948;2023-01-28T05:56:01;14.90;;;7.25;;
64832;SDS011;51290;45.060;38.948;2023-01-28T05:58:29;9.43;;;4.85;;
64832;SDS011;51290;45.060;38.948;2023-01-28T06:01:00;14.93;;;6.45;;
64832;SDS011;51290;45.060;38.948;2023-01-28T06:03:34;14.48;;;7.03;;
64832;SDS011;51290;45.060;38.948;2023-01-28T06:06:00;14.13;;;5.45;;
64832;SDS011;51290;45.060;38.948;2023-01-28T06:08:27;13.00;;;6.65;;
64832;SDS011;51290;45.060;38.948;2023-01-28T06:10:53;6.55;;;4.55;;
64832;SDS011;51290;45.060;38.948;2023-01-28T06:13:22;11.85;;;7.15;;
64832;SDS011;51290;45.060;38.948;2023-01-28T06:16:04;11.65;;;6.18;;
64832;SDS011;51290;45.060;38.948;2023-01-28T06:18:56;9.52;;;4.65;;
64832;SDS011;51290;45.060;38.948;2023-01-28T06:22:22;12.23;;;7.20;;
64832;SDS011;51290;45.060;38.948;2023-01-28T06:24:48;10.70;;;6.25;;
64832;SDS011;51290;45.060;38.948;2023-01-28T06:27:14;14.23;;;7.90;;
64832;SDS011;51290;45.060;38.948;2023-01-28T06:29:40;14.80;;;7.40;;
64832;SDS011;51290;45.060;38.948;2023-01-28T06:32:06;11.43;;;3.75;;
64832;SDS011;51290;45.060;38.948;2023-01-28T06:34:32;12.32;;;6.15;;
64832;SDS011;51290;45.060;38.948;2023-01-28T06:36:58;12.02;;;6.10;;
64832;SDS011;51290;45.060;38.948;2023-01-28T06:39:24;18.33;;;5.60;;
64832;SDS011;51290;45.060;38.948;2023-01-28T06:41:52;12.38;;;6.30;;
64832;SDS011;51290;45.060;38.948;2023-01-28T06:44:18;11.23;;;5.45;;
64832;SDS011;51290;45.060;38.948;2023-01-28T06:46:44;15.80;;;7.38;;
64832;SDS011;51290;45.060;38.948;2023-01-28T06:49:10;10.27;;;5.30;;
64832;SDS011;51290;45.060;38.948;2023-01-28T06:51:36;12.18;;;6.15;;
64832;SDS011;51290;45.060;38.948;2023-01-28T06:54:02;23.88;;;10.40;;
64832;SDS011;51290;45.060;38.948;2023-01-28T06:56:28;19.60;;;8.52;;
64832;SDS011;51290;45.060;38.948;2023-01-28T06:58:54;14.23;;;8.15;;
64832;SDS011;51290;45.060;38.948;2023-01-28T07:01:20;13.57;;;5.75;;
64832;SDS011;51290;45.060;38.948;2023-01-28T07:03:46;10.80;;;5.72;;
64832;SDS011;51290;45.060;38.948;2023-01-28T07:06:12;19.00;;;6.70;;
64832;SDS011;51290;45.060;38.948;2023-01-28T07:08:38;14.30;;;5.30;;
64832;SDS011;51290;45.060;38.948;2023-01-28T07:11:05;18.92;;;6.38;;
64832;SDS011;51290;45.060;38.948;2023-01-28T07:13:31;8.82;;;5.22;;
64832;SDS011;51290;45.060;38.948;2023-01-28T07:15:58;11.48;;;5.28;;
64832;SDS011;51290;45.060;38.948;2023-01-28T07:18:24;15.15;;;6.68;;
64832;SDS011;51290;45.060;38.948;2023-01-28T07:20:50;27.90;;;6.93;;
64832;SDS011;51290;45.060;38.948;2023-01-28T07:23:16;5.78;;;4.43;;
64832;SDS011;51290;45.060;38.948;2023-01-28T07:25:42;19.45;;;6.05;;
64832;SDS011;51290;45.060;38.948;2023-01-28T07:28:08;14.23;;;6.72;;
64832;SDS011;51290;45.060;38.948;2023-01-28T07:30:35;10.75;;;6.35;;
64832;SDS011;51290;45.060;38.948;2023-01-28T07:33:01;11.57;;;6.13;;
64832;SDS011;51290;45.060;38.948;2023-01-28T07:35:27;12.95;;;6.45;;
64832;SDS011;51290;45.060;38.948;2023-01-28T07:37:54;8.23;;;5.10;;
64832;SDS011;51290;45.060;38.948;2023-01-28T07:40:22;15.60;;;8.75;;
64832;SDS011;51290;45.060;38.948;2023-01-28T07:42:48;11.70;;;5.45;;
64832;SDS011;51290;45.060;38.948;2023-01-28T07:45:20;13.00;;;6.55;;
64832;SDS011;51290;45.060;38.948;2023-01-28T07:47:55;14.13;;;6.93;;
64832;SDS011;51290;45.060;38.948;2023-01-28T07:50:23;14.50;;;6.03;;
64832;SDS011;51290;45.060;38.948;2023-01-28T07:52:49;18.05;;;7.88;;
64832;SDS011;51290;45.060;38.948;2023-01-28T07:55:16;15.20;;;7.85;;
64832;SDS011;51290;45.060;38.948;2023-01-28T07:57:49;15.40;;;8.57;;
64832;SDS011;51290;45.060;38.948;2023-01-28T08:00:25;20.35;;;8.18;;
64832;SDS011;51290;45.060;38.948;2023-01-28T08:02:57;10.88;;;6.40;;
64832;SDS011;51290;45.060;38.948;2023-01-28T08:05:25;21.25;;;7.80;;
64832;SDS011;51290;45.060;38.948;2023-01-28T08:07:54;15.05;;;8.27;;
64832;SDS011;51290;45.060;38.948;2023-01-28T08:10:20;17.67;;;6.25;;
64832;SDS011;51290;45.060;38.948;2023-01-28T08:12:55;11.20;;;5.97;;
64832;SDS011;51290;45.060;38.948;2023-01-28T08:15:25;18.27;;;7.53;;
64832;SDS011;51290;45.060;38.948;2023-01-28T08:17:55;25.92;;;9.55;;
64832;SDS011;51290;45.060;38.948;2023-01-28T08:20:23;16.98;;;6.30;;
64832;SDS011;51290;45.060;38.948;2023-01-28T08:22:50;17.45;;;8.27;;
64832;SDS011;51290;45.060;38.948;2023-01-28T08:25:16;24.90;;;8.80;;
64832;SDS011;51290;45.060;38.948;2023-01-28T08:27:43;13.02;;;6.55;;
64832;SDS011;51290;45.060;38.948;2023-01-28T08:30:09;11.73;;;6.07;;
64832;SDS011;51290;45.060;38.948;2023-01-28T08:32:35;21.02;;;8.80;;
64832;SDS011;51290;45.060;38.948;2023-01-28T08:35:02;12.65;;;6.97;;
64832;SDS011;51290;45.060;38.948;2023-01-28T08:37:29;9.63;;;6.10;;
64832;SDS011;51290;45.060;38.948;2023-01-28T08:39:55;15.48;;;7.55;;
64832;SDS011;51290;45.060;38.948;2023-01-28T08:42:21;23.65;;;10.15;;
64832;SDS011;51290;45.060;38.948;2023-01-28T08:44:47;12.98;;;7.50;;
64832;SDS011;51290;45.060;38.948;2023-01-28T08:47:13;12.15;;;7.07;;
64832;SDS011;51290;45.060;38.948;2023-01-28T08:49:39;19.45;;;8.05;;
64832;SDS011;51290;45.060;38.948;2023-01-28T08:52:05;16.10;;;9.63;;
64832;SDS011;51290;45.060;38.948;2023-01-28T08:54:32;27.25;;;7.57;;
64832;SDS011;51290;45.060;38.948;2023-01-28T08:56:58;20.05;;;8.05;;
64832;SDS011;51290;45.060;38.948;2023-01-28T08:59:24;13.48;;;8.23;;
64832;SDS011;51290;45.060;38.948;2023-01-28T09:01:50;17.17;;;8.48;;
64832;SDS011;51290;45.060;38.948;2023-01-28T09:04:16;22.20;;;8.02;;
64832;SDS011;51290;45.060;38.948;2023-01-28T09:06:42;16.45;;;7.38;;
64832;SDS011;51290;45.060;38.948;2023-01-28T09:09:08;17.85;;;8.38;;
64832;SDS011;51290;45.060;38.948;2023-01-28T09:11:34;15.15;;;7.88;;
64832;SDS011;51290;45.060;38.948;2023-01-28T09:14:00;11.25;;;6.70;;
64832;SDS011;51290;45.060;38.948;2023-01-28T09:16:25;15.50;;;6.15;;
64832;SDS011;51290;45.060;38.948;2023-01-28T09:18:52;31.35;;;8.65;;
64832;SDS011;51290;45.060;38.948;2023-01-28T09:21:18;18.30;;;8.20;;
64832;SDS011;51290;45.060;38.948;2023-01-28T09:23:45;17.23;;;8.15;;
64832;SDS011;51290;45.060;38.948;2023-01-28T09:26:11;17.38;;;8.20;;
64832;SDS011;51290;45.060;38.948;2023-01-28T09:28:37;15.13;;;7.70;;
64832;SDS011;51290;45.060;38.948;2023-01-28T09:31:05;11.75;;;6.22;;
64832;SDS011;51290;45.060;38.948;2023-01-28T09:33:33;18.15;;;8.68;;
64832;SDS011;51290;45.060;38.948;2023-01-28T09:36:00;19.15;;;8.65;;
64832;SDS011;51290;45.060;38.948;2023-01-28T09:38:28;17.70;;;7.75;;
64832;SDS011;51290;45.060;38.948;2023-01-28T09:40:55;16.15;;;6.05;;
64832;SDS011;51290;45.060;38.948;2023-01-28T09:46:08;14.32;;;7.25;;
64832;SDS011;51290;45.060;38.948;2023-01-28T09:48:39;18.58;;;7.32;;
64832;SDS011;51290;45.060;38.948;2023-01-28T09:51:09;13.52;;;7.10;;
64832;SDS011;51290;45.060;38.948;2023-01-28T09:53:52;11.77;;;6.65;;
64832;SDS011;51290;45.060;38.948;2023-01-28T09:56:24;18.42;;;8.20;;
64832;SDS011;51290;45.060;38.948;2023-01-28T09:58:53;19.38;;;7.00;;
64832;SDS011;51290;45.060;38.948;2023-01-28T10:12:31;14.43;;;6.88;;
64832;SDS011;51290;45.060;38.948;2023-01-28T10:18:10;26.25;;;10.98;;
64832;SDS011;51290;45.060;38.948;2023-01-28T10:20:54;21.65;;;8.55;;
64832;SDS011;51290;45.060;38.948;2023-01-28T10:26:00;18.77;;;7.43;;
64832;SDS011;51290;45.060;38.948;2023-01-28T10:28:35;15.13;;;8.20;;
64832;SDS011;51290;45.060;38.948;2023-01-28T10:31:01;17.58;;;8.85;;
64832;SDS011;51290;45.060;38.948;2023-01-28T10:33:36;17.33;;;8.07;;
64832;SDS011;51290;45.060;38.948;2023-01-28T10:36:04;14.52;;;7.72;;
64832;SDS011;51290;45.060;38.948;2023-01-28T10:38:31;13.80;;;7.32;;
64832;SDS011;51290;45.060;38.948;2023-01-28T10:41:01;19.02;;;9.18;;
64832;SDS011;51290;45.060;38.948;2023-01-28T10:43:32;16.52;;;7.72;;
64832;SDS011;51290;45.060;38.948;2023-01-28T10:51:32;19.73;;;9.30;;
64832;SDS011;51290;45.060;38.948;2023-01-28T10:54:00;20.17;;;10.07;;
64832;SDS011;51290;45.060;38.948;2023-01-28T10:56:28;22.70;;;9.93;;
64832;SDS011;51290;45.060;38.948;2023-01-28T10:59:06;19.83;;;8.80;;
64832;SDS011;51290;45.060;38.948;2023-01-28T11:01:52;21.30;;;7.63;;
64832;SDS011;51290;45.060;38.948;2023-01-28T11:09:49;16.33;;;8.07;;
64832;SDS011;51290;45.060;38.948;2023-01-28T11:12:25;25.35;;;11.40;;
64832;SDS011;51290;45.060;38.948;2023-01-28T11:14:54;28.08;;;11.30;;
64832;SDS011;51290;45.060;38.948;2023-01-28T11:17:25;21.35;;;10.88;;
64832;SDS011;51290;45.060;38.948;2023-01-28T11:19:54;23.92;;;9.48;;
64832;SDS011;51290;45.060;38.948;2023-01-28T11:22:31;20.77;;;11.18;;
64832;SDS011;51290;45.060;38.948;2023-01-28T11:27:50;24.05;;;10.88;;
64832;SDS011;51290;45.060;38.948;2023-01-28T11:30:22;20.98;;;9.90;;
64832;SDS011;51290;45.060;38.948;2023-01-28T11:32:57;18.27;;;10.32;;
64832;SDS011;51290;45.060;38.948;2023-01-28T11:35:40;16.05;;;9.07;;
64832;SDS011;51290;45.060;38.948;2023-01-28T11:38:16;21.00;;;10.75;;
64832;SDS011;51290;45.060;38.948;2023-01-28T11:40:51;20.77;;;9.85;;
64832;SDS011;51290;45.060;38.948;2023-01-28T11:43:22;21.92;;;11.43;;
64832;SDS011;51290;45.060;38.948;2023-01-28T11:54:10;19.38;;;10.02;;
64832;SDS011;51290;45.060;38.948;2023-01-28T11:59:53;24.02;;;9.18;;
64832;SDS011;51290;45.060;38.948;2023-01-28T12:07:44;25.75;;;10.65;;
64832;SDS011;51290;45.060;38.948;2023-01-28T12:10:40;21.40;;;7.28;;
64832;SDS011;51290;45.060;38.948;2023-01-28T12:15:53;5.53;;;3.78;;
64832;SDS011;51290;45.060;38.948;2023-01-28T12:21:10;15.40;;;7.93;;
64832;SDS011;51290;45.060;38.948;2023-01-28T12:27:00;18.00;;;9.65;;
64832;SDS011;51290;45.060;38.948;2023-01-28T12:32:40;16.08;;;9.50;;
64832;SDS011;51290;45.060;38.948;2023-01-28T12:35:33;23.70;;;8.35;;
64832;SDS011;51290;45.060;38.948;2023-01-28T12:38:06;24.23;;;12.25;;
64832;SDS011;51290;45.060;38.948;2023-01-28T12:46:22;17.92;;;8.75;;
64832;SDS011;51290;45.060;38.948;2023-01-28T12:49:04;14.18;;;8.23;;
64832;SDS011;51290;45.060;38.948;2023-01-28T12:51:53;14.10;;;6.28;;
64832;SDS011;51290;45.060;38.948;2023-01-28T12:54:34;17.25;;;8.55;;
64832;SDS011;51290;45.060;38.948;2023-01-28T12:57:12;31.10;;;12.50;;
64832;SDS011;51290;45.060;38.948;2023-01-28T12:59:41;22.27;;;10.40;;
64832;SDS011;51290;45.060;38.948;2023-01-28T13:04:49;14.52;;;8.13;;
64832;SDS011;51290;45.060;38.948;2023-01-28T13:12:37;21.42;;;10.18;;
64832;SDS011;51290;45.060;38.948;2023-01-28T13:15:04;22.08;;;10.43;;
64832;SDS011;51290;45.060;38.948;2023-01-28T13:17:36;28.33;;;11.60;;
64832;SDS011;51290;45.060;38.948;2023-01-28T13:20:12;23.83;;;10.23;;
64832;SDS011;51290;45.060;38.948;2023-01-28T13:22:42;13.05;;;8.48;;
64832;SDS011;51290;45.060;38.948;2023-01-28T13:25:23;22.35;;;12.25;;
64832;SDS011;51290;45.060;38.948;2023-01-28T13:27:59;23.52;;;12.23;;
64832;SDS011;51290;45.060;38.948;2023-01-28T13:30:27;22.95;;;11.35;;
64832;SDS011;51290;45.060;38.948;2023-01-28T13:33:31;23.40;;;8.95;;
64832;SDS011;51290;45.060;38.948;2023-01-28T13:36:01;17.52;;;10.35;;
64832;SDS011;51290;45.060;38.948;2023-01-28T13:41:12;17.70;;;9.32;;
64832;SDS011;51290;45.060;38.948;2023-01-28T13:43:39;16.63;;;9.82;;
64832;SDS011;51290;45.060;38.948;2023-01-28T13:46:08;23.75;;;12.55;;
64832;SDS011;51290;45.060;38.948;2023-01-28T13:48:47;21.15;;;9.38;;
64832;SDS011;51290;45.060;38.948;2023-01-28T13:51:17;21.95;;;11.40;;
64832;SDS011;51290;45.060;38.948;2023-01-28T14:02:18;24.33;;;10.70;;
64832;SDS011;51290;45.060;38.948;2023-01-28T14:07:51;18.58;;;10.60;;
64832;SDS011;51290;45.060;38.948;2023-01-28T14:13:11;15.80;;;9.88;;
64832;SDS011;51290;45.060;38.948;2023-01-28T14:16:04;25.23;;;10.77;;
64832;SDS011;51290;45.060;38.948;2023-01-28T14:18:42;16.67;;;9.93;;
64832;SDS011;51290;45.060;38.948;2023-01-28T14:21:19;20.77;;;9.95;;
64832;SDS011;51290;45.060;38.948;2023-01-28T14:23:48;14.50;;;8.93;;
64832;SDS011;51290;45.060;38.948;2023-01-28T14:26:22;15.93;;;9.50;;
64832;SDS011;51290;45.060;38.948;2023-01-28T14:29:11;21.60;;;11.07;;
64832;SDS011;51290;45.060;38.948;2023-01-28T14:31:45;23.88;;;11.77;;
64832;SDS011;51290;45.060;38.948;2023-01-28T14:34:27;20.05;;;9.65;;
64832;SDS011;51290;45.060;38.948;2023-01-28T14:36:57;24.60;;;9.63;;
64832;SDS011;51290;45.060;38.948;2023-01-28T14:39:44;17.25;;;8.30;;
64832;SDS011;51290;45.060;38.948;2023-01-28T14:42:18;23.10;;;11.55;;
64832;SDS011;51290;45.060;38.948;2023-01-28T14:44:48;20.90;;;8.57;;
64832;SDS011;51290;45.060;38.948;2023-01-28T14:47:36;24.35;;;10.57;;
64832;SDS011;51290;45.060;38.948;2023-01-28T14:50:26;20.30;;;8.40;;
64832;SDS011;51290;45.060;38.948;2023-01-28T14:53:23;21.30;;;10.65;;
64832;SDS011;51290;45.060;38.948;2023-01-28T14:58:51;22.05;;;11.65;;
64832;SDS011;51290;45.060;38.948;2023-01-28T15:01:25;29.42;;;12.05;;
64832;SDS011;51290;45.060;38.948;2023-01-28T15:03:52;27.63;;;10.68;;
64832;SDS011;51290;45.060;38.948;2023-01-28T15:06:20;15.75;;;7.03;;
64832;SDS011;51290;45.060;38.948;2023-01-28T15:08:51;24.55;;;10.48;;
64832;SDS011;51290;45.060;38.948;2023-01-28T15:11:22;19.25;;;10.02;;
64832;SDS011;51290;45.060;38.948;2023-01-28T15:13:51;24.52;;;12.23;;
64832;SDS011;51290;45.060;38.948;2023-01-28T15:16:25;16.60;;;9.75;;
64832;SDS011;51290;45.060;38.948;2023-01-28T15:18:54;20.85;;;11.20;;
64832;SDS011;51290;45.060;38.948;2023-01-28T15:21:24;18.90;;;9.13;;
64832;SDS011;51290;45.060;38.948;2023-01-28T15:23:58;27.27;;;10.98;;
64832;SDS011;51290;45.060;38.948;2023-01-28T15:26:30;19.15;;;10.52;;
64832;SDS011;51290;45.060;38.948;2023-01-28T15:28:58;25.02;;;12.93;;
64832;SDS011;51290;45.060;38.948;2023-01-28T15:31:25;24.17;;;11.82;;
64832;SDS011;51290;45.060;38.948;2023-01-28T15:33:58;29.77;;;14.77;;
64832;SDS011;51290;45.060;38.948;2023-01-28T15:36:26;21.20;;;12.23;;
64832;SDS011;51290;45.060;38.948;2023-01-28T15:38:53;22.05;;;12.23;;
64832;SDS011;51290;45.060;38.948;2023-01-28T15:41:21;23.30;;;13.32;;
64832;SDS011;51290;45.060;38.948;2023-01-28T15:43:53;25.02;;;13.80;;
64832;SDS011;51290;45.060;38.948;2023-01-28T15:46:19;21.85;;;12.05;;
64832;SDS011;51290;45.060;38.948;2023-01-28T15:48:52;29.00;;;14.40;;
64832;SDS011;51290;45.060;38.948;2023-01-28T15:51:25;26.08;;;13.27;;
64832;SDS011;51290;45.060;38.948;2023-01-28T15:53:55;18.80;;;9.82;;
64832;SDS011;51290;45.060;38.948;2023-01-28T15:56:25;17.38;;;8.93;;
64832;SDS011;51290;45.060;38.948;2023-01-28T15:58:53;16.33;;;10.18;;
64832;SDS011;51290;45.060;38.948;2023-01-28T16:01:20;27.17;;;10.70;;
64832;SDS011;51290;45.060;38.948;2023-01-28T16:06:47;18.27;;;9.57;;
64832;SDS011;51290;45.060;38.948;2023-01-28T16:09:18;18.30;;;8.52;;
64832;SDS011;51290;45.060;38.948;2023-01-28T16:11:51;17.52;;;8.68;;
64832;SDS011;51290;45.060;38.948;2023-01-28T16:14:22;17.75;;;10.13;;
64832;SDS011;51290;45.060;38.948;2023-01-28T16:16:51;17.38;;;9.48;;
64832;SDS011;51290;45.060;38.948;2023-01-28T16:19:23;25.90;;;10.10;;
64832;SDS011;51290;45.060;38.948;2023-01-28T16:22:05;21.88;;;10.43;;
64832;SDS011;51290;45.060;38.948;2023-01-28T16:24:33;23.38;;;10.27;;
64832;SDS011;51290;45.060;38.948;2023-01-28T16:27:17;20.15;;;9.68;;
64832;SDS011;51290;45.060;38.948;2023-01-28T16:29:46;19.50;;;10.15;;
64832;SDS011;51290;45.060;38.948;2023-01-28T16:32:28;24.17;;;11.52;;
64832;SDS011;51290;45.060;38.948;2023-01-28T16:34:58;17.50;;;9.65;;
64832;SDS011;51290;45.060;38.948;2023-01-28T16:37:25;20.75;;;10.10;;
64832;SDS011;51290;45.060;38.948;2023-01-28T16:39:51;22.23;;;11.32;;
64832;SDS011;51290;45.060;38.948;2023-01-28T16:42:17;25.20;;;11.82;;
64832;SDS011;51290;45.060;38.948;2023-01-28T16:44:44;25.92;;;9.93;;
64832;SDS011;51290;45.060;38.948;2023-01-28T16:47:11;19.98;;;10.18;;
64832;SDS011;51290;45.060;38.948;2023-01-28T16:49:38;18.80;;;9.48;;
64832;SDS011;51290;45.060;38.948;2023-01-28T16:52:05;17.08;;;8.98;;
64832;SDS011;51290;45.060;38.948;2023-01-28T16:54:32;21.20;;;9.05;;
64832;SDS011;51290;45.060;38.948;2023-01-28T16:56:59;22.52;;;9.73;;
64832;SDS011;51290;45.060;38.948;2023-01-28T16:59:25;22.08;;;9.32;;
64832;SDS011;51290;45.060;38.948;2023-01-28T17:01:51;21.40;;;10.35;;
64832;SDS011;51290;45.060;38.948;2023-01-28T17:04:17;21.33;;;10.90;;
64832;SDS011;51290;45.060;38.948;2023-01-28T17:06:43;19.38;;;8.25;;
64832;SDS011;51290;45.060;38.948;2023-01-28T17:09:10;21.52;;;10.45;;
64832;SDS011;51290;45.060;38.948;2023-01-28T17:11:37;22.95;;;9.93;;
64832;SDS011;51290;45.060;38.948;2023-01-28T17:14:04;22.08;;;9.15;;
64832;SDS011;51290;45.060;38.948;2023-01-28T17:16:31;20.33;;;8.82;;
64832;SDS011;51290;45.060;38.948;2023-01-28T17:18:57;20.73;;;9.65;;
64832;SDS011;51290;45.060;38.948;2023-01-28T17:21:23;26.67;;;11.25;;
64832;SDS011;51290;45.060;38.948;2023-01-28T17:23:49;17.10;;;8.63;;
64832;SDS011;51290;45.060;38.948;2023-01-28T17:26:15;16.13;;;8.63;;
64832;SDS011;51290;45.060;38.948;2023-01-28T17:28:41;21.55;;;10.60;;
64832;SDS011;51290;45.060;38.948;2023-01-28T17:31:08;24.27;;;11.88;;
64832;SDS011;51290;45.060;38.948;2023-01-28T17:33:38;22.25;;;10.95;;
64832;SDS011;51290;45.060;38.948;2023-01-28T17:36:06;21.55;;;10.38;;
64832;SDS011;51290;45.060;38.948;2023-01-28T17:38:32;24.60;;;11.57;;
64832;SDS011;51290;45.060;38.948;2023-01-28T17:41:05;17.83;;;8.82;;
64832;SDS011;51290;45.060;38.948;2023-01-28T17:43:32;17.65;;;9.52;;
64832;SDS011;51290;45.060;38.948;2023-01-28T17:45:59;25.63;;;10.48;;
64832;SDS011;51290;45.060;38.948;2023-01-28T17:48:25;26.20;;;9.20;;
64832;SDS011;51290;45.060;38.948;2023-01-28T17:50:56;18.10;;;8.98;;
64832;SDS011;51290;45.060;38.948;2023-01-28T17:53:23;22.42;;;10.50;;
64832;SDS011;51290;45.060;38.948;2023-01-28T17:55:49;18.58;;;10.10;;
64832;SDS011;51290;45.060;38.948;2023-01-28T17:58:15;24.00;;;11.02;;
64832;SDS011;51290;45.060;38.948;2023-01-28T18:00:44;20.70;;;11.23;;
64832;SDS011;51290;45.060;38.948;2023-01-28T18:03:13;17.55;;;7.13;;
64832;SDS011;51290;45.060;38.948;2023-01-28T18:05:40;20.10;;;9.60;;
64832;SDS011;51290;45.060;38.948;2023-01-28T18:08:55;26.45;;;11.20;;
64832;SDS011;51290;45.060;38.948;2023-01-28T18:11:21;23.23;;;10.10;;
64832;SDS011;51290;45.060;38.948;2023-01-28T18:13:47;17.10;;;8.98;;
64832;SDS011;51290;45.060;38.948;2023-01-28T18:16:14;19.98;;;8.85;;
64832;SDS011;51290;45.060;38.948;2023-01-28T18:18:42;24.77;;;11.48;;
64832;SDS011;51290;45.060;38.948;2023-01-28T18:23:58;22.70;;;8.88;;
64832;SDS011;51290;45.060;38.948;2023-01-28T18:26:24;17.58;;;9.05;;
64832;SDS011;51290;45.060;38.948;2023-01-28T18:28:50;17.35;;;9.43;;
64832;SDS011;51290;45.060;38.948;2023-01-28T18:31:16;18.48;;;7.63;;
64832;SDS011;51290;45.060;38.948;2023-01-28T18:33:42;16.88;;;9.88;;
64832;SDS011;51290;45.060;38.948;2023-01-28T18:36:08;19.77;;;10.88;;
64832;SDS011;51290;45.060;38.948;2023-01-28T18:38:34;22.75;;;12.23;;
64832;SDS011;51290;45.060;38.948;2023-01-28T18:41:00;22.73;;;11.85;;
64832;SDS011;51290;45.060;38.948;2023-01-28T18:43:26;19.83;;;9.93;;
64832;SDS011;51290;45.060;38.948;2023-01-28T18:45:53;17.77;;;8.93;;
64832;SDS011;51290;45.060;38.948;2023-01-28T18:48:19;18.98;;;10.05;;
64832;SDS011;51290;45.060;38.948;2023-01-28T18:50:49;18.92;;;10.10;;
64832;SDS011;51290;45.060;38.948;2023-01-28T18:53:17;25.75;;;13.10;;
64832;SDS011;51290;45.060;38.948;2023-01-28T18:55:43;20.58;;;9.82;;
64832;SDS011;51290;45.060;38.948;2023-01-28T18:58:09;20.77;;;9.90;;
64832;SDS011;51290;45.060;38.948;2023-01-28T19:00:35;22.95;;;10.82;;
64832;SDS011;51290;45.060;38.948;2023-01-28T19:03:02;17.25;;;9.27;;
64832;SDS011;51290;45.060;38.948;2023-01-28T19:05:28;22.92;;;11.95;;
64832;SDS011;51290;45.060;38.948;2023-01-28T19:08:05;23.15;;;11.60;;
64832;SDS011;51290;45.060;38.948;2023-01-28T19:10:33;22.38;;;11.40;;
64832;SDS011;51290;45.060;38.948;2023-01-28T19:13:00;24.23;;;12.63;;
64832;SDS011;51290;45.060;38.948;2023-01-28T19:15:26;31.42;;;13.73;;
64832;SDS011;51290;45.060;38.948;2023-01-28T19:17:52;22.02;;;12.07;;
64832;SDS011;51290;45.060;38.948;2023-01-28T19:20:20;24.10;;;12.15;;
64832;SDS011;51290;45.060;38.948;2023-01-28T19:22:46;23.05;;;11.23;;
64832;SDS011;51290;45.060;38.948;2023-01-28T19:25:12;23.65;;;12.45;;
64832;SDS011;51290;45.060;38.948;2023-01-28T19:27:38;26.75;;;12.70;;
64832;SDS011;51290;45.060;38.948;2023-01-28T19:30:04;19.52;;;11.90;;
64832;SDS011;51290;45.060;38.948;2023-01-28T19:32:31;20.83;;;11.20;;
64832;SDS011;51290;45.060;38.948;2023-01-28T19:34:57;22.27;;;12.73;;
64832;SDS011;51290;45.060;38.948;2023-01-28T19:37:31;25.73;;;12.93;;
64832;SDS011;51290;45.060;38.948;2023-01-28T19:40:00;22.90;;;12.43;;
64832;SDS011;51290;45.060;38.948;2023-01-28T19:42:26;19.15;;;9.93;;
64832;SDS011;51290;45.060;38.948;2023-01-28T19:44:52;15.98;;;9.93;;
64832;SDS011;51290;45.060;38.948;2023-01-28T19:47:18;20.23;;;10.57;;
64832;SDS011;51290;45.060;38.948;2023-01-28T19:49:44;24.38;;;11.80;;
64832;SDS011;51290;45.060;38.948;2023-01-28T19:52:10;21.95;;;10.27;;
64832;SDS011;51290;45.060;38.948;2023-01-28T19:54:36;15.82;;;9.73;;
64832;SDS011;51290;45.060;38.948;2023-01-28T19:57:02;21.02;;;11.70;;
64832;SDS011;51290;45.060;38.948;2023-01-28T19:59:28;18.90;;;10.38;;
64832;SDS011;51290;45.060;38.948;2023-01-28T20:01:54;8.10;;;4.97;;
64832;SDS011;51290;45.060;38.948;2023-01-28T20:04:20;26.15;;;10.60;;
64832;SDS011;51290;45.060;38.948;2023-01-28T20:06:46;21.35;;;10.68;;
64832;SDS011;51290;45.060;38.948;2023-01-28T20:09:20;24.67;;;11.23;;
64832;SDS011;51290;45.060;38.948;2023-01-28T20:11:47;27.80;;;13.07;;
64832;SDS011;51290;45.060;38.948;2023-01-28T20:14:13;18.40;;;9.70;;
64832;SDS011;51290;45.060;38.948;2023-01-28T20:16:40;18.65;;;9.27;;
64832;SDS011;51290;45.060;38.948;2023-01-28T20:19:07;33.80;;;11.98;;
64832;SDS011;51290;45.060;38.948;2023-01-28T20:21:46;23.17;;;11.70;;
64832;SDS011;51290;45.060;38.948;2023-01-28T20:24:16;24.55;;;11.07;;
64832;SDS011;51290;45.060;38.948;2023-01-28T20:26:42;18.60;;;10.77;;
64832;SDS011;51290;45.060;38.948;2023-01-28T20:29:13;22.35;;;9.63;;
64832;SDS011;51290;45.060;38.948;2023-01-28T20:31:44;24.67;;;12.27;;
64832;SDS011;51290;45.060;38.948;2023-01-28T20:34:17;24.00;;;11.20;;
64832;SDS011;51290;45.060;38.948;2023-01-28T20:36:44;27.98;;;11.90;;
64832;SDS011;51290;45.060;38.948;2023-01-28T20:39:11;21.52;;;10.27;;
64832;SDS011;51290;45.060;38.948;2023-01-28T20:41:37;18.35;;;8.98;;
64832;SDS011;51290;45.060;38.948;2023-01-28T20:44:03;16.52;;;8.38;;
64832;SDS011;51290;45.060;38.948;2023-01-28T20:46:30;21.25;;;10.80;;
64832;SDS011;51290;45.060;38.948;2023-01-28T20:48:58;20.95;;;11.07;;
64832;SDS011;51290;45.060;38.948;2023-01-28T20:51:28;17.60;;;8.73;;
64832;SDS011;51290;45.060;38.948;2023-01-28T20:53:56;18.42;;;9.85;;
64832;SDS011;51290;45.060;38.948;2023-01-28T20:56:23;20.60;;;11.32;;
64832;SDS011;51290;45.060;38.948;2023-01-28T20:58:53;22.23;;;9.05;;
64832;SDS011;51290;45.060;38.948;2023-01-28T21:01:24;28.52;;;11.50;;
64832;SDS011;51290;45.060;38.948;2023-01-28T21:03:52;15.68;;;8.65;;
64832;SDS011;51290;45.060;38.948;2023-01-28T21:06:18;22.15;;;9.98;;
64832;SDS011;51290;45.060;38.948;2023-01-28T21:08:44;15.63;;;9.90;;
64832;SDS011;51290;45.060;38.948;2023-01-28T21:11:10;22.35;;;10.45;;
64832;SDS011;51290;45.060;38.948;2023-01-28T21:13:37;36.65;;;12.93;;
64832;SDS011;51290;45.060;38.948;2023-01-28T21:16:06;18.48;;;10.38;;
64832;SDS011;51290;45.060;38.948;2023-01-28T21:18:32;21.83;;;10.80;;
64832;SDS011;51290;45.060;38.948;2023-01-28T21:21:02;23.80;;;11.02;;
64832;SDS011;51290;45.060;38.948;2023-01-28T21:23:30;20.58;;;10.10;;
64832;SDS011;51290;45.060;38.948;2023-01-28T21:25:59;19.70;;;7.88;;
64832;SDS011;51290;45.060;38.948;2023-01-28T21:28:27;19.55;;;10.20;;
64832;SDS011;51290;45.060;38.948;2023-01-28T21:30:53;25.02;;;11.05;;
64832;SDS011;51290;45.060;38.948;2023-01-28T21:33:19;23.60;;;12.93;;
64832;SDS011;51290;45.060;38.948;2023-01-28T21:35:45;21.67;;;12.07;;
64832;SDS011;51290;45.060;38.948;2023-01-28T21:38:11;21.92;;;11.10;;
64832;SDS011;51290;45.060;38.948;2023-01-28T21:40:37;20.90;;;11.95;;
64832;SDS011;51290;45.060;38.948;2023-01-28T21:43:05;28.13;;;12.35;;
64832;SDS011;51290;45.060;38.948;2023-01-28T21:45:31;19.48;;;9.38;;
64832;SDS011;51290;45.060;38.948;2023-01-28T21:47:57;24.45;;;13.40;;
64832;SDS011;51290;45.060;38.948;2023-01-28T21:50:23;28.67;;;11.02;;
64832;SDS011;51290;45.060;38.948;2023-01-28T21:52:49;20.58;;;9.57;;
64832;SDS011;51290;45.060;38.948;2023-01-28T21:55:16;18.00;;;10.02;;
64832;SDS011;51290;45.060;38.948;2023-01-28T21:57:43;17.00;;;8.88;;
64832;SDS011;51290;45.060;38.948;2023-01-28T22:00:09;23.00;;;10.40;;